Time;durP1;ratioP1;P1;durP2;ratioP2;P2;SDS_P1;SDS_P2;PMS_P1;PMS_P2;Temp;Humidity;BMP_temperature;BMP_pressure;BME280_temperature;BME280_humidity;BME280_pressure;Samples;Min_cycle;Max_cycle;Signal;HPM_P1;HPM_P2
2023/11/01 00:05:57;;;;;;;3.10;1.60;;;;;;;12.09;92.66;99032.72;674620;1260;139698;-78
2023/11/01 00:21:01;;;;;;;2.50;1.60;;;;;;;12.13;92.80;99051.88;674816;1260;139067;-78
2023/11/01 00:36:04;;;;;;;2.60;1.80;;;;;;;12.15;92.60;99054.60;674126;1266;140467;-79
2023/11/01 00:51:08;;;;;;;2.10;1.90;;;;;;;12.10;92.87;99063.69;679350;1260;139473;-80
2023/11/01 01:06:11;;;;;;;2.40;2.20;;;;;;;12.02;91.82;99067.00;675605;1261;139323;-78
2023/11/01 01:21:15;;;;;;;3.10;1.90;;;;;;;11.92;91.04;99098.21;678814;1260;139709;-80
2023/11/01 01:36:18;;;;;;;3.60;1.80;;;;;;;11.73;90.61;99130.55;677811;1262;139456;-80
2023/11/01 01:51:21;;;;;;;2.10;1.70;;;;;;;11.54;90.68;99146.48;679209;1261;138782;-80
2023/11/01 02:06:25;;;;;;;3.60;1.90;;;;;;;11.31;91.87;99158.41;678531;1259;139297;-80
2023/11/01 02:21:28;;;;;;;2.90;1.70;;;;;;;10.70;94.47;99175.31;678004;1259;140042;-80
2023/11/01 02:36:32;;;;;;;2.40;1.80;;;;;;;10.44;96.45;99184.54;678996;1273;139861;-80
2023/11/01 02:51:36;;;;;;;1.90;1.50;;;;;;;10.21;97.31;99195.73;677191;1272;139166;-80
2023/11/01 03:06:39;;;;;;;2.00;1.50;;;;;;;10.13;97.49;99198.69;672813;1262;138788;-79
2023/11/01 03:21:43;;;;;;;3.70;2.30;;;;;;;10.06;98.06;99213.86;677047;1262;138969;-80
2023/11/01 03:36:46;;;;;;;4.60;2.10;;;;;;;10.09;97.71;99229.66;678448;1261;140002;-80
2023/11/01 03:51:49;;;;;;;4.30;2.50;;;;;;;10.17;97.64;99250.04;678132;1263;138875;-80
2023/11/01 04:06:53;;;;;;;6.20;1.70;;;;;;;10.32;97.72;99271.85;677916;1261;139140;-80
2023/11/01 04:21:57;;;;;;;2.00;1.60;;;;;;;10.35;95.65;99283.66;680231;1262;138613;-78
2023/11/01 04:37:00;;;;;;;2.30;1.50;;;;;;;10.30;92.96;99302.29;677265;1261;139424;-78
2023/11/01 04:52:07;;;;;;;1.40;0.80;;;;;;;10.14;90.14;99318.92;665898;1262;138547;-78
2023/11/01 05:07:10;;;;;;;1.20;1.00;;;;;;;9.96;86.99;99349.36;679377;1261;141892;-78
2023/11/01 05:22:14;;;;;;;2.00;1.20;;;;;;;9.84;85.16;99370.70;676863;1262;138767;-79
2023/11/01 05:37:17;;;;;;;2.00;1.60;;;;;;;9.54;82.07;99405.00;678619;1261;139931;-78
2023/11/01 05:52:21;;;;;;;1.50;1.40;;;;;;;9.11;78.31;99435.66;676320;1260;139276;-79
2023/11/01 06:07:25;;;;;;;2.90;1.50;;;;;;;8.88;75.85;99466.44;678550;1261;139299;-78
2023/11/01 06:22:29;;;;;;;11.30;3.80;;;;;;;8.46;76.66;99488.63;674118;1265;138951;-79
2023/11/01 06:37:32;;;;;;;2.60;2.00;;;;;;;8.29;76.20;99506.86;670100;1262;139895;-78
2023/11/01 06:52:36;;;;;;;3.80;1.90;;;;;;;8.31;77.03;99521.52;677793;1261;140546;-79
2023/11/01 07:07:39;;;;;;;23.20;7.70;;;;;;;8.36;76.82;99541.73;677486;1261;139776;-80
2023/11/01 07:22:43;;;;;;;6.00;3.20;;;;;;;8.47;77.27;99547.59;672196;1263;139010;-82
2023/11/01 07:37:46;;;;;;;18.00;6.10;;;;;;;8.64;77.44;99564.58;680861;1262;139263;-82
2023/11/01 07:52:50;;;;;;;10.10;4.00;;;;;;;8.62;75.11;99585.61;682125;1266;138658;-81
2023/11/01 08:07:53;;;;;;;3.70;2.30;;;;;;;8.64;73.95;99596.11;678028;1262;139867;-81
2023/11/01 08:22:57;;;;;;;5.50;2.10;;;;;;;8.78;74.70;99608.59;672618;1262;140039;-82
2023/11/01 08:38:02;;;;;;;12.40;6.10;;;;;;;8.99;74.46;99617.82;677389;1261;139062;-81
2023/11/01 08:53:06;;;;;;;8.30;5.30;;;;;;;9.23;74.54;99640.58;674252;1262;139001;-80
2023/11/01 09:08:10;;;;;;;14.70;7.20;;;;;;;9.24;72.01;99656.05;677469;1262;138852;-81
2023/11/01 09:23:14;;;;;;;4.90;2.90;;;;;;;10.06;72.85;99671.77;676880;1274;138946;-81
2023/11/01 09:38:17;;;;;;;42.60;13.00;;;;;;;10.81;68.74;99682.77;677360;1263;139209;-81
2023/11/01 09:53:21;;;;;;;14.50;6.70;;;;;;;12.22;68.36;99684.30;672288;1263;139114;-82
2023/11/01 10:08:25;;;;;;;9.30;6.00;;;;;;;14.67;62.53;99684.20;678992;1265;139384;-81
2023/11/01 10:23:28;;;;;;;7.90;4.60;;;;;;;15.76;59.65;99686.73;671020;1262;138793;-80
2023/11/01 10:38:32;;;;;;;8.30;3.90;;;;;;;17.08;55.77;99691.48;676709;1263;138806;-81
2023/11/01 10:53:37;;;;;;;2.20;1.60;;;;;;;16.85;55.14;99693.52;673293;1263;139626;-82
2023/11/01 11:08:41;;;;;;;8.40;4.30;;;;;;;15.61;53.25;99690.66;677075;1262;139365;-81
2023/11/01 11:23:45;;;;;;;5.60;3.50;;;;;;;15.98;55.82;99707.33;676261;1263;138501;-81
2023/11/01 11:38:51;;;;;;;18.80;10.20;;;;;;;14.27;55.00;99706.33;675752;1263;140325;-80
2023/11/01 11:53:55;;;;;;;5.40;4.00;;;;;;;13.90;57.16;99694.75;676304;1264;138395;-79
2023/11/01 12:08:59;;;;;;;7.30;3.80;;;;;;;13.53;58.92;99684.98;678845;1260;138603;-82
2023/11/01 12:24:03;;;;;;;5.40;3.10;;;;;;;13.13;59.91;99675.43;674319;1263;139257;-82
2023/11/01 12:39:08;;;;;;;4.90;3.40;;;;;;;12.49;61.29;99678.20;674338;1264;138561;-83
2023/11/01 12:54:12;;;;;;;6.60;4.20;;;;;;;12.32;62.68;99672.92;676108;1260;139378;-82
2023/11/01 13:09:16;;;;;;;4.90;4.10;;;;;;;11.94;64.46;99673.06;678144;1260;138761;-81
2023/11/01 13:24:20;;;;;;;5.30;3.70;;;;;;;11.58;65.27;99670.04;677561;1260;138992;-81
2023/11/01 13:39:24;;;;;;;9.80;4.10;;;;;;;11.38;65.56;99670.62;676055;1262;138174;-81
2023/11/01 13:54:27;;;;;;;8.60;3.80;;;;;;;11.38;65.99;99679.36;673191;1264;138933;-80
2023/11/01 14:09:31;;;;;;;10.90;4.30;;;;;;;11.18;66.45;99684.38;680443;1261;138766;-81
2023/11/01 14:24:34;;;;;;;15.00;6.40;;;;;;;11.27;66.64;99680.44;673542;1263;139393;-81
2023/11/01 14:39:38;;;;;;;11.00;5.60;;;;;;;11.30;67.47;99680.71;670888;1260;138738;-80
2023/11/01 14:54:41;;;;;;;14.80;7.80;;;;;;;11.04;67.74;99672.98;679992;1259;139039;-79
2023/11/01 15:09:45;;;;;;;237.90;115.90;;;;;;;10.17;69.92;99683.33;671811;1263;140474;-80
2023/11/01 15:24:50;;;;;;;511.30;114.00;;;;;;;9.12;72.41;99678.24;671726;1275;140156;-80
2023/11/01 15:39:55;;;;;;;179.30;56.20;;;;;;;9.12;73.45;99684.31;674592;1263;140057;-81
2023/11/01 15:54:58;;;;;;;31.40;13.70;;;;;;;9.14;73.59;99686.98;671785;1264;139906;-82
2023/11/01 16:10:02;;;;;;;231.60;82.30;;;;;;;8.92;74.87;99686.32;674578;1258;139791;-81
2023/11/01 16:25:07;;;;;;;66.10;29.90;;;;;;;8.66;75.63;99685.65;676436;1259;139423;-81
2023/11/01 16:40:12;;;;;;;28.80;16.20;;;;;;;8.29;77.60;99687.37;674841;1260;138937;-81
2023/11/01 16:55:16;;;;;;;67.10;30.10;;;;;;;7.75;80.43;99696.83;678847;1262;139151;-82
2023/11/01 17:10:19;;;;;;;42.40;17.50;;;;;;;7.45;81.59;99695.76;679281;1258;139926;-82
2023/11/01 17:25:32;;;;;;;112.30;40.60;;;;;;;7.30;81.70;99694.34;677911;1258;138898;-81
2023/11/01 17:40:36;;;;;;;287.50;115.60;;;;;;;7.37;80.33;99693.30;674174;1262;139376;-81
2023/11/01 17:55:40;;;;;;;71.70;33.10;;;;;;;7.24;80.93;99690.02;671669;1262;139288;-81
2023/11/01 18:10:47;;;;;;;174.30;61.60;;;;;;;7.15;81.63;99684.48;673620;1258;140567;-81
2023/11/01 18:26:04;;;;;;;321.70;120.00;;;;;;;6.94;81.92;99686.52;678697;1259;139844;-82
2023/11/01 18:41:08;;;;;;;394.90;147.10;;;;;;;6.93;82.74;99674.44;670588;1261;140284;-81
2023/11/01 18:56:12;;;;;;;213.40;81.60;;;;;;;6.99;83.22;99660.08;674763;1263;139846;-81
2023/11/01 19:11:16;;;;;;;231.80;101.10;;;;;;;7.16;84.89;99627.69;676228;1259;139311;-81
2023/11/01 19:26:23;;;;;;;261.90;110.90;;;;;;;7.37;83.99;99616.23;672540;1263;139612;-80
2023/11/01 19:41:30;;;;;;;124.80;56.30;;;;;;;7.03;84.84;99632.77;673612;1258;139848;-81
2023/11/01 19:56:33;;;;;;;105.80;44.90;;;;;;;7.20;87.42;99632.90;672719;1262;139892;-81
2023/11/01 20:11:38;;;;;;;200.60;77.70;;;;;;;7.86;87.21;99620.87;676147;1262;140241;-81
2023/11/01 20:26:42;;;;;;;179.60;69.60;;;;;;;8.14;87.29;99615.67;675936;1262;142106;-81
2023/11/01 20:41:46;;;;;;;50.30;21.30;;;;;;;8.18;89.08;99599.70;679572;1262;139706;-81
2023/11/01 20:56:49;;;;;;;149.10;63.50;;;;;;;8.63;88.87;99587.48;672444;1258;138884;-80
2023/11/01 21:11:53;;;;;;;23.80;11.80;;;;;;;8.88;88.62;99574.20;671561;1263;139234;-81
2023/11/01 21:26:58;;;;;;;26.60;12.50;;;;;;;9.15;90.53;99557.92;676023;1262;139522;-80
2023/11/01 21:42:02;;;;;;;21.80;8.80;;;;;;;9.47;89.35;99541.14;679093;1262;140312;-81
2023/11/01 21:57:07;;;;;;;24.00;10.80;;;;;;;9.67;90.67;99526.98;676571;1262;140754;-80
2023/11/01 22:12:10;;;;;;;23.10;10.50;;;;;;;9.92;89.96;99514.17;679407;1262;139714;-81
2023/11/01 22:27:16;;;;;;;19.00;8.90;;;;;;;10.12;89.08;99511.66;671467;1262;139948;-81
2023/11/01 22:42:29;;;;;;;32.00;15.00;;;;;;;10.07;89.82;99502.86;672635;1261;140380;-81
2023/11/01 22:57:32;;;;;;;27.80;12.40;;;;;;;10.13;89.47;99492.23;676403;1262;139595;-81
2023/11/01 23:12:35;;;;;;;20.10;10.70;;;;;;;10.42;89.06;99493.88;676497;1263;140708;-82
2023/11/01 23:27:39;;;;;;;20.80;10.90;;;;;;;10.78;86.03;99474.55;677153;1262;140794;-81
2023/11/01 23:42:46;;;;;;;33.50;13.90;;;;;;;10.47;86.17;99470.66;677743;1263;139789;-82
2023/11/01 23:57:50;;;;;;;41.40;15.40;;;;;;;10.22;87.49;99449.16;678141;1263;140758;-82
